.
WxDataArchive / Data Records for 2009-02-19
2009-02-18 February 2009 2009-02-20

Data Records for Thursday, 19 February 2009

Time	Temp	Chill	HIndex	Humid	Dewpt	 Wind 	HiWind	WindDir	Rain 	Barom 
-----	----	-----	------	-----	-----	------	------	-------	-----	----- 
00:00	30.0	25.8	30.0	79	24.3	4	11	315	0.00	29.609 
00:05	29.5	29.5	29.5	79	23.8	2	9	270	0.00	29.611 
00:10	29.3	29.3	29.3	80	23.9	3	9	292	0.00	29.616 
00:15	28.8	28.8	28.8	81	23.7	3	12	292	0.00	29.621 
00:20	28.4	28.4	28.4	81	23.3	2	7	0	0.00	29.623 
00:25	28.1	28.1	28.1	81	23.0	2	7	315	0.00	29.629 
00:30	27.5	27.5	27.5	80	22.2	3	11	315	0.00	29.626 
00:35	27.3	27.3	27.3	78	21.4	3	11	292	0.00	29.628 
00:40	27.3	27.3	27.3	77	21.1	3	9	315	0.00	29.633 
00:45	27.5	27.5	27.5	76	20.9	3	10	270	0.00	29.637 
00:50	27.5	27.5	27.5	73	20.0	3	10	315	0.00	29.635 
00:55	27.3	21.6	27.3	71	19.2	5	12	292	0.00	29.639 
01:00	27.2	27.2	27.2	71	19.1	3	10	338	0.00	29.639 
01:05	27.0	27.0	27.0	70	18.5	3	9	315	0.00	29.640 
01:10	26.7	26.7	26.7	70	18.3	3	10	315	0.00	29.641 
01:15	26.7	26.7	26.7	71	18.6	3	12	315	0.00	29.648 
01:20	26.6	26.6	26.6	70	18.2	3	11	315	0.00	29.647 
01:25	26.4	21.6	26.4	69	17.6	4	7	315	0.00	29.651 
01:30	26.4	26.4	26.4	67	17.0	3	9	315	0.00	29.651 
01:35	26.3	26.3	26.3	67	16.9	3	9	315	0.00	29.654 
01:40	26.3	26.3	26.3	68	17.2	2	6	338	0.00	29.656 
01:45	26.0	26.0	26.0	69	17.2	2	11	315	0.00	29.659 
01:50	25.7	25.7	25.7	69	17.0	3	7	338	0.00	29.660 
01:55	25.4	25.4	25.4	69	16.7	2	13	338	0.00	29.670 
02:00	25.3	25.3	25.3	69	16.6	1	4	338	0.00	29.673 
02:05	25.3	25.3	25.3	69	16.6	2	5	338	0.00	29.676 
02:10	25.3	25.3	25.3	69	16.6	2	5	292	0.00	29.677 
02:15	25.1	19.0	25.1	67	15.7	5	10	292	0.00	29.685 
02:20	24.8	18.6	24.8	66	15.1	5	12	315	0.00	29.689 
02:25	24.7	18.5	24.7	67	15.3	5	10	270	0.00	29.691 
02:30	24.7	19.6	24.7	68	15.7	4	8	270	0.00	29.690 
02:35	24.5	19.4	24.5	68	15.5	4	11	315	0.00	29.691 
02:40	24.4	24.4	24.4	69	15.7	2	9	270	0.00	29.694 
02:45	24.2	19.1	24.2	69	15.5	4	11	292	0.00	29.698 
02:50	23.9	23.9	23.9	67	14.6	3	7	270	0.00	29.701 
02:55	23.6	18.4	23.6	65	13.6	4	9	315	0.00	29.704 
03:00	23.6	18.4	23.6	65	13.6	4	12	292	0.00	29.707 
03:05	23.6	18.4	23.6	65	13.6	4	11	315	0.00	29.706 
03:10	23.6	18.4	23.6	66	13.9	4	10	315	0.00	29.708 
03:15	23.6	18.4	23.6	67	14.3	4	11	292	0.00	29.708 
03:20	23.5	23.5	23.5	68	14.5	3	9	315	0.00	29.709 
03:25	23.3	18.0	23.3	69	14.7	4	10	315	0.00	29.713 
03:30	23.2	23.2	23.2	70	14.9	2	5	315	0.00	29.716 
03:35	23.2	23.2	23.2	70	14.9	3	6	315	0.00	29.717 
03:40	22.9	22.9	22.9	71	14.9	3	11	292	0.00	29.723 
03:45	22.7	22.7	22.7	71	14.7	3	9	292	0.00	29.726 
03:50	22.5	15.9	22.5	68	13.6	5	12	315	0.00	29.728 
03:55	22.4	17.0	22.4	65	12.4	4	10	315	0.00	29.728 
04:00	22.2	16.8	22.2	65	12.3	4	10	315	0.00	29.735 
04:05	22.1	16.6	22.1	66	12.5	4	9	315	0.00	29.739 
04:10	22.1	22.1	22.1	67	12.8	2	6	270	0.00	29.741 
04:15	22.1	22.1	22.1	68	13.2	3	9	315	0.00	29.740 
04:20	22.1	22.1	22.1	67	12.8	3	8	270	0.00	29.742 
04:25	21.9	21.9	21.9	67	12.7	3	10	315	0.00	29.744 
04:30	21.9	21.9	21.9	68	13.0	3	10	270	0.00	29.746 
04:35	21.8	16.3	21.8	70	13.5	4	10	270	0.00	29.751 
04:40	21.1	21.1	21.1	74	14.1	3	6	315	0.00	29.758 
04:45	21.0	21.0	21.0	75	14.3	2	9	315	0.00	29.760 
04:50	21.0	21.0	21.0	75	14.3	2	5	292	0.00	29.762 
04:55	21.0	15.4	21.0	71	13.1	4	7	292	0.00	29.765 
05:00	21.0	14.2	21.0	67	11.8	5	14	270	0.00	29.765 
05:05	21.0	15.4	21.0	66	11.5	4	13	292	0.00	29.768 
05:10	20.8	20.8	20.8	68	11.9	2	7	315	0.00	29.774 
05:15	20.6	14.9	20.6	70	12.4	4	8	270	0.00	29.774 
05:20	20.6	14.9	20.6	69	12.1	4	11	292	0.00	29.776 
05:25	20.5	14.8	20.5	66	11.0	4	9	270	0.00	29.777 
05:30	20.5	14.8	20.5	65	10.6	4	12	338	0.00	29.779 
05:35	20.2	14.4	20.2	65	10.3	4	7	270	0.00	29.781 
05:40	20.0	14.2	20.0	65	10.2	4	9	270	0.00	29.787 
05:45	19.9	19.9	19.9	66	10.4	3	9	270	0.00	29.792 
05:50	19.7	19.7	19.7	67	10.5	3	7	315	0.00	29.794 
05:55	19.7	19.7	19.7	67	10.5	3	6	270	0.00	29.795 
06:00	19.7	13.9	19.7	66	10.2	4	12	292	0.00	29.796 
06:05	19.5	13.6	19.5	65	9.7	4	7	270	0.00	29.796 
06:10	19.5	19.5	19.5	65	9.7	3	7	292	0.00	29.800 
06:15	19.4	19.4	19.4	65	9.6	3	10	292	0.00	29.809 
06:20	19.4	19.4	19.4	65	9.6	2	5	315	0.00	29.811 
06:25	19.4	19.4	19.4	70	11.2	2	5	315	0.00	29.813 
06:30	19.1	19.1	19.1	70	11.0	2	6	315	0.00	29.814 
06:35	19.1	19.1	19.1	69	10.6	2	5	315	0.00	29.820 
06:40	18.9	18.9	18.9	71	11.1	3	7	315	0.00	29.820 
06:45	18.6	18.6	18.6	71	10.8	3	13	270	0.00	29.825 
06:50	18.6	18.6	18.6	70	10.5	2	6	292	0.00	29.826 
06:55	18.4	18.4	18.4	71	10.6	2	5	270	0.00	29.827 
07:00	18.4	18.4	18.4	73	11.2	3	10	292	0.00	29.828 
07:05	18.1	18.1	18.1	75	11.5	3	7	315	0.00	29.830 
07:10	18.1	18.1	18.1	76	11.8	3	9	315	0.00	29.830 
07:15	18.3	18.3	18.3	75	11.7	3	8	270	0.00	29.838 
07:20	18.3	18.3	18.3	76	12.0	2	6	292	0.00	29.843 
07:25	18.1	18.1	18.1	77	12.1	2	7	270	0.00	29.845 
07:30	17.8	17.8	17.8	79	12.4	3	5	270	0.00	29.847 
07:35	17.5	17.5	17.5	79	12.1	3	7	270	0.00	29.848 
07:40	17.2	17.2	17.2	79	11.8	3	7	315	0.00	29.849 
07:45	17.0	17.0	17.0	80	11.9	3	6	270	0.00	29.852 
07:50	17.0	10.7	17.0	79	11.6	4	12	270	0.00	29.855 
07:55	17.0	17.0	17.0	78	11.3	3	13	270	0.00	29.856 
08:00	17.0	10.7	17.0	77	11.1	4	11	270	0.00	29.859 
08:05	17.0	9.5	17.0	76	10.8	5	12	270	0.00	29.864 
08:10	17.0	17.0	17.0	77	11.1	3	7	270	0.00	29.867 
08:15	17.0	17.0	17.0	77	11.1	3	5	270	0.00	29.872 
08:20	17.2	11.0	17.2	77	11.3	4	10	270	0.00	29.869 
08:25	17.3	17.3	17.3	76	11.1	3	10	270	0.00	29.875 
08:30	17.0	9.5	17.0	75	10.5	5	10	270	0.00	29.878 
08:35	16.9	16.9	16.9	76	10.7	3	8	270	0.00	29.880 
08:40	16.9	16.9	16.9	76	10.7	3	6	270	0.00	29.879 
08:45	16.9	10.6	16.9	74	10.1	4	10	270	0.00	29.882 
08:50	17.0	10.7	17.0	73	9.9	4	7	270	0.00	29.885 
08:55	17.2	9.7	17.2	72	9.8	5	9	270	0.00	29.891 
09:00	17.3	17.3	17.3	72	9.8	3	7	270	0.00	29.892 
09:05	17.5	11.3	17.5	72	10.0	4	10	270	0.00	29.894 
09:10	17.7	11.6	17.7	71	9.9	4	10	270	0.00	29.893 
09:15	18.0	11.9	18.0	69	9.6	4	12	292	0.00	29.894 
09:20	18.1	12.0	18.1	69	9.7	4	13	270	0.00	29.894 
09:25	18.3	18.3	18.3	69	9.9	3	11	270	0.00	29.898 
09:30	18.1	10.7	18.1	69	9.7	5	10	270	0.00	29.899 
09:35	18.3	18.3	18.3	69	9.9	3	10	270	0.00	29.901 
09:40	18.1	12.0	18.1	69	9.7	4	9	315	0.00	29.906 
09:45	18.3	12.3	18.3	69	9.9	4	11	270	0.00	29.907 
09:50	18.3	11.0	18.3	69	9.9	5	10	270	0.00	29.908 
09:55	18.3	12.3	18.3	69	9.9	4	10	270	0.00	29.909 
10:00	18.8	18.8	18.8	70	10.7	3	7	292	0.00	29.909 
10:05	18.9	12.9	18.9	69	10.4	4	6	270	0.00	29.911 
10:10	19.1	13.2	19.1	68	10.3	4	9	270	0.00	29.912 
10:15	18.9	12.9	18.9	67	9.8	4	9	292	0.00	29.912 
10:20	18.9	12.9	18.9	68	10.1	4	10	270	0.00	29.916 
10:25	19.1	13.2	19.1	69	10.6	4	11	270	0.00	29.918 
10:30	19.2	19.2	19.2	71	11.4	2	5	270	0.00	29.923 
10:35	19.5	13.6	19.5	69	11.0	4	11	270	0.00	29.922 
10:40	19.5	12.4	19.5	66	10.0	5	10	270	0.00	29.922 
10:45	19.7	12.6	19.7	65	9.9	5	10	270	0.00	29.923 
10:50	19.9	14.1	19.9	65	10.1	4	7	270	0.00	29.924 
10:55	19.7	13.9	19.7	64	9.5	4	10	315	0.00	29.925 
11:00	20.0	20.0	20.0	66	10.5	3	6	270	0.00	29.924 
11:05	20.0	13.0	20.0	65	10.2	5	13	292	0.00	29.927 
11:10	19.9	14.1	19.9	64	9.7	4	13	270	0.00	29.929 
11:15	19.7	12.6	19.7	64	9.5	5	12	270	0.00	29.934 
11:20	20.2	14.4	20.2	64	10.0	4	15	270	0.00	29.936 
11:25	20.2	14.4	20.2	63	9.7	4	10	292	0.00	29.938 
11:30	20.3	14.6	20.3	62	9.4	4	9	270	0.00	29.940 
11:35	20.2	13.2	20.2	61	8.9	5	12	338	0.00	29.941 
11:40	20.2	12.2	20.2	61	8.9	6	14	270	0.00	29.942 
11:45	20.3	14.6	20.3	60	8.7	4	10	270	0.00	29.944 
11:50	20.3	14.6	20.3	60	8.7	4	12	292	0.00	29.944 
11:55	20.3	14.6	20.3	62	9.4	4	10	315	0.00	29.948 
12:00	20.5	20.5	20.5	61	9.2	3	12	315	0.00	29.948 
12:05	20.3	14.6	20.3	60	8.7	4	11	292	0.00	29.955 
12:10	20.3	14.6	20.3	61	9.0	4	12	270	0.00	29.957 
12:15	20.2	13.2	20.2	61	8.9	5	12	270	0.00	29.958 
12:20	20.2	14.4	20.2	62	9.3	4	10	270	0.00	29.959 
12:25	20.2	13.2	20.2	62	9.3	5	10	270	0.00	29.962 
12:30	20.5	13.6	20.5	61	9.2	5	11	270	0.00	29.961 
12:35	20.6	14.9	20.6	62	9.7	4	7	270	0.00	29.961 
12:40	20.3	14.6	20.3	65	10.4	4	10	270	0.00	29.963 
12:45	20.0	13.0	20.0	65	10.2	5	11	270	0.00	29.964 
12:50	20.5	13.6	20.5	62	9.6	5	12	292	0.00	29.965 
12:55	20.6	13.7	20.6	59	8.6	5	10	270	0.00	29.961 
13:00	20.5	14.8	20.5	64	10.3	4	10	292	0.00	29.968 
13:05	19.7	13.9	19.7	70	11.5	4	10	270	0.00	29.973 
13:10	19.9	14.1	19.9	73	12.7	4	9	270	0.00	29.975 
13:15	19.7	19.7	19.7	74	12.8	3	6	270	0.00	29.975 
13:20	19.7	19.7	19.7	77	13.7	3	6	270	0.00	29.976 
13:25	20.0	20.0	20.0	80	14.8	1	4	270	0.00	29.975 
13:30	19.9	12.9	19.9	77	13.9	5	14	292	0.00	29.976 
13:35	19.7	13.9	19.7	72	12.2	4	7	315	0.00	29.977 
13:40	20.2	13.2	20.2	66	10.7	5	18	270	0.00	29.978 
13:45	20.3	14.6	20.3	66	10.8	4	9	270	0.00	29.980 
13:50	20.3	14.6	20.3	65	10.4	4	11	270	0.00	29.980 
13:55	20.2	13.2	20.2	67	11.0	5	12	270	0.00	29.981 
14:00	20.2	13.2	20.2	68	11.4	5	10	270	0.00	29.982 
14:05	20.6	12.7	20.6	62	9.7	6	15	270	0.00	29.986 
14:10	20.6	13.7	20.6	62	9.7	5	11	270	0.00	29.983 
14:15	20.8	13.9	20.8	59	8.8	5	9	270	0.00	29.985 
14:20	20.8	13.9	20.8	60	9.1	5	14	270	0.00	29.984 
14:25	20.8	15.1	20.8	58	8.4	4	9	270	0.00	29.985 
14:30	20.8	15.1	20.8	58	8.4	4	15	270	0.00	29.987 
14:35	21.0	14.2	21.0	57	8.2	5	10	270	0.00	29.990 
14:40	20.8	13.9	20.8	57	8.0	5	17	270	0.00	29.990 
14:45	21.0	15.4	21.0	58	8.6	4	9	270	0.00	29.992 
14:50	20.6	13.7	20.6	60	8.9	5	16	270	0.00	29.994 
14:55	20.6	20.6	20.6	62	9.7	3	10	270	0.00	29.995 
15:00	20.8	15.1	20.8	60	9.1	4	12	270	0.00	29.999 
15:05	20.6	13.7	20.6	58	8.2	5	11	270	0.00	30.000 
15:10	20.6	12.7	20.6	57	7.8	6	15	315	0.00	30.004 
15:15	20.6	13.7	20.6	58	8.2	5	11	270	0.00	30.005 
15:20	20.8	15.1	20.8	58	8.4	4	10	270	0.00	30.007 
15:25	21.0	15.4	21.0	58	8.6	4	10	270	0.00	30.009 
15:30	20.8	15.1	20.8	58	8.4	4	9	270	0.00	30.008 
15:35	21.0	15.4	21.0	59	9.0	4	10	292	0.00	30.012 
15:40	20.8	15.1	20.8	57	8.0	4	9	270	0.00	30.012 
15:45	20.8	15.1	20.8	56	7.6	4	10	270	0.00	30.011 
15:50	21.0	15.4	21.0	58	8.6	4	9	270	0.00	30.014 
15:55	21.0	21.0	21.0	58	8.6	3	7	315	0.00	30.014 
16:00	20.8	13.9	20.8	56	7.6	5	11	270	0.00	30.017 
16:05	20.8	20.8	20.8	56	7.6	3	6	270	0.00	30.018 
16:10	20.8	15.1	20.8	56	7.6	4	11	292	0.00	30.021 
16:15	20.6	20.6	20.6	58	8.2	3	7	292	0.00	30.023 
16:20	20.5	20.5	20.5	62	9.6	3	9	270	0.00	30.027 
16:25	20.5	20.5	20.5	62	9.6	3	7	270	0.00	30.029 
16:30	20.5	20.5	20.5	62	9.6	3	7	270	0.00	30.031 
16:35	20.2	14.4	20.2	62	9.3	4	10	270	0.00	30.033 
16:40	20.2	20.2	20.2	60	8.6	3	6	315	0.00	30.034 
16:45	20.3	20.3	20.3	61	9.0	3	7	270	0.00	30.038 
16:50	20.2	14.4	20.2	60	8.6	4	7	270	0.00	30.039 
16:55	20.2	20.2	20.2	62	9.3	3	6	270	0.00	30.039 
17:00	20.0	14.2	20.0	62	9.1	4	9	270	0.00	30.042 
17:05	19.9	19.9	19.9	61	8.7	3	7	292	0.00	30.042 
17:10	19.9	19.9	19.9	60	8.3	3	9	315	0.00	30.046 
17:15	19.7	13.9	19.7	58	7.3	4	11	270	0.00	30.048 
17:20	19.5	19.5	19.5	58	7.2	3	7	270	0.00	30.048 
17:25	19.5	19.5	19.5	58	7.2	3	10	270	0.00	30.048 
17:30	19.4	19.4	19.4	57	6.7	3	7	315	0.00	30.051 
17:35	19.4	19.4	19.4	58	7.1	3	12	292	0.00	30.053 
17:40	19.2	13.3	19.2	58	6.9	4	7	270	0.00	30.055 
17:45	19.2	19.2	19.2	59	7.3	3	6	270	0.00	30.059 
17:50	19.1	19.1	19.1	60	7.5	3	6	270	0.00	30.063 
17:55	19.1	19.1	19.1	61	7.9	2	6	270	0.00	30.061 
18:00	19.1	19.1	19.1	60	7.5	3	7	270	0.00	30.064 
18:05	19.1	13.2	19.1	59	7.2	4	7	270	0.00	30.066 
18:10	18.9	18.9	18.9	60	7.3	2	6	270	0.00	30.066 
18:15	18.9	18.9	18.9	60	7.3	3	7	270	0.00	30.067 
18:20	18.9	18.9	18.9	60	7.3	3	6	270	0.00	30.067 
18:25	18.8	18.8	18.8	60	7.2	3	6	270	0.00	30.068 
18:30	18.8	18.8	18.8	60	7.2	3	6	270	0.00	30.068 
18:35	18.6	18.6	18.6	60	7.1	2	6	270	0.00	30.069 
18:40	18.6	18.6	18.6	59	6.7	2	8	270	0.00	30.070 
18:45	18.6	18.6	18.6	59	6.7	3	5	270	0.00	30.071 
18:50	18.6	18.6	18.6	59	6.7	2	5	270	0.00	30.072 
18:55	18.4	18.4	18.4	60	6.9	2	4	248	0.00	30.075 
19:00	18.4	18.4	18.4	59	6.5	3	6	270	0.00	30.077 
19:05	18.4	18.4	18.4	60	6.9	2	5	270	0.00	30.081 
19:10	18.4	18.4	18.4	59	6.5	2	5	270	0.00	30.081 
19:15	18.4	18.4	18.4	59	6.5	2	5	270	0.00	30.083 
19:20	18.3	18.3	18.3	59	6.4	2	5	248	0.00	30.084 
19:25	18.3	18.3	18.3	60	6.8	1	2	248	0.00	30.084 
19:30	18.1	18.1	18.1	61	6.9	1	3	248	0.00	30.085 
19:35	18.1	18.1	18.1	61	6.9	1	2	248	0.00	30.085 
19:40	18.0	18.0	18.0	62	7.2	0	3	248	0.00	30.086 
19:45	18.0	18.0	18.0	62	7.2	1	3	248	0.00	30.087 
19:50	18.1	18.1	18.1	62	7.3	2	9	248	0.00	30.086 
19:55	18.3	18.3	18.3	61	7.1	1	3	248	0.00	30.085 
20:00	18.4	18.4	18.4	60	6.9	2	4	248	0.00	30.085 
20:05	18.4	18.4	18.4	60	6.9	1	6	248	0.00	30.084 
20:10	18.4	18.4	18.4	60	6.9	2	4	248	0.00	30.084 
20:15	18.4	18.4	18.4	60	6.9	2	6	270	0.00	30.085 
20:20	18.4	18.4	18.4	60	6.9	3	9	270	0.00	30.085 
20:25	18.3	18.3	18.3	60	6.8	2	6	248	0.00	30.086 
20:30	18.3	18.3	18.3	60	6.8	3	7	270	0.00	30.084 
20:35	18.3	18.3	18.3	61	7.1	2	6	270	0.00	30.084 
20:40	18.3	18.3	18.3	62	7.5	2	12	248	0.00	30.084 
20:45	18.3	18.3	18.3	62	7.5	2	4	248	0.00	30.085 
20:50	18.4	18.4	18.4	62	7.6	3	10	270	0.00	30.084 
20:55	18.4	18.4	18.4	63	7.9	2	4	248	0.00	30.084 
21:00	18.4	18.4	18.4	63	7.9	2	5	270	0.00	30.084 
21:05	18.6	18.6	18.6	63	8.1	3	10	270	0.00	30.080 
21:10	18.8	18.8	18.8	63	8.3	2	5	270	0.00	30.080 
21:15	18.8	18.8	18.8	63	8.3	2	6	270	0.00	30.080 
21:20	18.9	18.9	18.9	63	8.4	2	5	270	0.00	30.079 
21:25	18.9	18.9	18.9	63	8.4	2	5	270	0.00	30.079 
21:30	19.1	19.1	19.1	63	8.6	3	9	248	0.00	30.079 
21:35	19.1	19.1	19.1	63	8.6	2	6	270	0.00	30.079 
21:40	19.2	19.2	19.2	63	8.7	2	5	270	0.00	30.078 
21:45	19.2	19.2	19.2	64	9.0	2	4	248	0.00	30.079 
21:50	19.2	19.2	19.2	64	9.0	1	5	248	0.00	30.077 
21:55	19.4	19.4	19.4	64	9.2	3	10	248	0.00	30.077 
22:00	19.4	19.4	19.4	64	9.2	3	9	270	0.00	30.076 
22:05	19.5	19.5	19.5	64	9.3	3	12	270	0.00	30.076 
22:10	19.5	19.5	19.5	64	9.3	2	5	270	0.00	30.078 
22:15	19.7	13.9	19.7	64	9.5	4	11	270	0.00	30.075 
22:20	19.7	19.7	19.7	64	9.5	2	4	248	0.00	30.074 
22:25	19.7	19.7	19.7	64	9.5	3	7	270	0.00	30.073 
22:30	19.9	14.1	19.9	64	9.7	4	9	270	0.00	30.071 
22:35	19.9	19.9	19.9	64	9.7	2	9	248	0.00	30.074 
22:40	19.9	19.9	19.9	65	10.1	2	6	248	0.00	30.075 
22:45	19.9	19.9	19.9	65	10.1	2	7	270	0.00	30.076 
22:50	19.9	19.9	19.9	65	10.1	1	3	270	0.00	30.075 
22:55	19.9	19.9	19.9	64	9.7	2	4	248	0.00	30.074 
23:00	19.9	19.9	19.9	65	10.1	2	6	248	0.00	30.073 
23:05	20.0	20.0	20.0	65	10.2	2	5	270	0.00	30.077 
23:10	20.0	20.0	20.0	64	9.8	2	7	270	0.00	30.076 
23:15	20.2	20.2	20.2	64	10.0	2	4	270	0.00	30.074 
23:20	20.2	20.2	20.2	63	9.7	3	11	270	0.00	30.075 
23:25	20.2	20.2	20.2	63	9.7	2	6	270	0.00	30.071 
23:30	20.2	20.2	20.2	62	9.3	3	6	270	0.00	30.071 
23:35	20.2	20.2	20.2	62	9.3	2	5	270	0.00	30.071 
23:40	20.0	20.0	20.0	62	9.1	3	5	270	0.00	30.068 
23:45	20.0	20.0	20.0	62	9.1	3	9	270	0.00	30.072 
23:50	20.0	20.0	20.0	65	10.2	3	7	270	0.00	30.069 
23:55	20.2	20.2	20.2	61	8.9	3	5	270	0.00	30.072 

CoCoRaHS
IN-AL-39
A2 Web Hosting
Creative Commons License
GoDaddy
search engine by freefind advanced

loaded 2018-11-15 16:42:13 • last modified 2010-11-18 10:43:29
Privacy PolicyDisclaimer
• wx.awcolley.com is powered by PmWiki v.2002016 •
• all content (unless otherwise noted) © 2018 A W Colley